Aeroporto :
LOGIN :

Iscrizione | Disclaimer

   EN    FR    IT 

 










Sommario :    VFR   VFR Marginale   IFR   IFR Intensivo   IFR Molto Intensivo
Visibilità : 
Base nubi : 
>= 8 km
>= 3000ft
5 / 8 km
1000 / 3000 ft
1500m / 5 km
500 / 1000 ft
800 / 1500m
200 / 500 ft
< 800m
< 200 ft
Simboli :   Temporali  Nebbia  Neve Forte  Precipitazioni Forti  Vento > 20 kt
SIGMETs :   Varie  Temporali  Ghiacco  Turbolenza  Onda orograficha  Ceneri Vulcaniche






- Altitudine del aeroporto : 0 ft


ETEB - Ansbach Army Heliport

ULTIMO METAR :
  • 280336Z AUTO 27006KT 9999 CLR 12/10 A3005 RMK AO2 DZE01DZB05E10RAB10E19DZB19E22DZB25E32RAB32E36 SLP189 $

METARs OBSOLETI :
  • 280325Z AUTO 26007KT 9999 -DZ SCT065 12/10 A3005 RMK AO2 DZE01DZB05E10RAB10E19DZB19E22DZB25 SLP188 $
  • 280301Z AUTO 28007KT 9999 OVC060 12/10 A3005 RMK AO2 DZE01 SLP189 $
  • 280223Z AUTO 28005KT 9999 -RA FEW060 BKN070 13/10 A3005 RMK AO2 DZB02E17RAB23 SLP189 $
  • 280202Z AUTO 27010KT 9999 -DZ FEW055 SCT075 13/10 A3005 RMK AO2 DZB02 SLP188 $
  • 280146Z AUTO 28008KT 9999 FEW055 13/11 A3005 RMK AO2 DZB20E35RAB35E44DZB44E46 SLP188 $
  • 280120Z AUTO 28010KT 9999 -DZ FEW011 SCT055 13/11 A3004 RMK AO2 DZB20 SLP184 $
  • 280055Z AUTO 27006KT 9999 SCT011 BKN018 14/12 A3004 RMK AO2 SLP184 T01360116 $
  • 272355Z AUTO 26009KT 9999 BKN011 BKN014 14/12 A3003 RMK AO2 SLP181 60002 T01400124 10177 20139 52006 $
  • 272340Z AUTO 27009KT 9999 BKN011 BKN070 14/13 A3003 RMK AO2 CIG 011V070 SLP181 $
  • 272255Z AUTO 27005KT 9999 BKN060 14/13 A3003 RMK AO2 RAE2159DZB14E17 SLP181 P0000 T01410128 401990137 $

Previsioni scadute.



MetMap, La meteo Aeronautica in un colpo d'occhio ! - Copyright ORBIFLY Dicembre 2007 - Disclaimer

ORBIFLY MET'MAP TEAM :

Programmazione e sviluppo : Alexandra Zaïnal
Concezione : Baudouin d'Aumeries
Supporto tecnico e logistico : Manuel Goepfert
Aiuto : Marc-Olivier Méhu
Aiuto per la traduzione : Arnaldo La Scala




FONTI E CREDITI :

   NOAA